Time;durP1;ratioP1;P1;durP2;ratioP2;P2;SDS_P1;SDS_P2;PMS_P1;PMS_P2;Temp;Humidity;BMP_temperature;BMP_pressure;BME280_temperature;BME280_humidity;BME280_pressure;Samples;Min_cycle;Max_cycle;Signal;HPM_P1;HPM_P2
2022/11/17 00:00:36;;;;;;;5.30;4.90;;;12.00;53.50;;;;;;20713;6721;334920;-73
2022/11/17 00:03:12;;;;;;;4.20;3.80;;;12.10;53.00;;;;;;20938;6721;117348;-73
2022/11/17 00:05:47;;;;;;;4.10;3.80;;;12.10;53.10;;;;;;20915;6721;117296;-74
2022/11/17 00:08:22;;;;;;;4.07;3.53;;;11.80;53.80;;;;;;20900;6721;116937;-73
2022/11/17 00:10:58;;;;;;;4.73;4.43;;;11.50;54.40;;;;;;20937;6721;116962;-73
2022/11/17 00:16:31;;;;;;;4.87;4.47;;;11.50;56.00;;;;;;20909;6721;277979;-75
2022/11/17 00:21:59;;;;;;;6.30;4.70;;;11.30;56.30;;;;;;19607;7078;320313;-75
2022/11/17 00:24:35;;;;;;;6.03;5.03;;;11.40;56.10;;;;;;20350;6782;280315;-75
2022/11/17 00:27:10;;;;;;;5.67;4.90;;;11.70;55.00;;;;;;20935;6721;116868;-75
2022/11/17 00:29:46;;;;;;;5.78;5.18;;;11.50;55.80;;;;;;20526;6721;308490;-75
2022/11/17 00:35:18;;;;;;;5.50;5.00;;;11.40;55.40;;;;;;20727;6721;276486;-75
2022/11/17 00:40:49;;;;;;;4.90;4.50;;;11.80;53.70;;;;;;20720;6721;306075;-75
2022/11/17 00:43:25;;;;;;;4.07;3.77;;;12.00;53.30;;;;;;20936;6721;117230;-77
2022/11/17 00:46:00;;;;;;;4.40;4.00;;;11.90;54.40;;;;;;20708;6721;305591;-75
2022/11/17 00:48:36;;;;;;;4.00;3.70;;;11.90;53.60;;;;;;20674;6721;278893;-75
2022/11/17 00:51:11;;;;;;;4.27;3.87;;;12.10;53.80;;;;;;20938;6721;116925;-75
2022/11/17 00:53:48;;;;;;;3.83;3.53;;;12.00;54.10;;;;;;20917;6721;118023;-75
2022/11/17 00:56:24;;;;;;;4.18;3.87;;;11.70;54.50;;;;;;20725;6721;277758;-75
2022/11/17 00:58:58;;;;;;;4.43;4.10;;;11.80;54.80;;;;;;20626;6721;283504;-75
2022/11/17 01:01:34;;;;;;;4.50;4.20;;;12.10;54.50;;;;;;20703;6721;334868;-76
2022/11/17 01:04:10;;;;;;;4.60;4.20;;;12.60;53.80;;;;;;20719;6721;327600;-75
2022/11/17 01:06:45;;;;;;;3.63;3.33;;;12.50;53.70;;;;;;20944;6721;121277;-75
2022/11/17 01:09:21;;;;;;;3.67;3.27;;;12.40;54.10;;;;;;20805;6721;116919;-75
2022/11/17 01:11:57;;;;;;;4.70;4.30;;;12.00;54.40;;;;;;20712;6721;312145;-75
2022/11/17 01:14:33;;;;;;;4.27;3.97;;;12.00;54.40;;;;;;20943;6721;116873;-75
2022/11/17 01:17:09;;;;;;;3.93;3.60;;;11.70;55.20;;;;;;20943;6721;116861;-75
2022/11/17 01:19:45;;;;;;;4.27;3.23;;;11.70;55.20;;;;;;20753;6721;117850;-75
2022/11/17 01:22:20;;;;;;;3.23;3.03;;;11.50;55.70;;;;;;20929;6725;117171;-75
2022/11/17 01:24:56;;;;;;;3.90;3.40;;;11.30;56.00;;;;;;20662;6740;334133;-75
2022/11/17 01:27:32;;;;;;;3.03;2.63;;;11.50;55.20;;;;;;20873;6737;117298;-76
2022/11/17 01:30:07;;;;;;;2.87;2.67;;;11.50;55.20;;;;;;20742;6737;117480;-75
2022/11/17 01:32:43;;;;;;;2.77;2.57;;;11.40;55.60;;;;;;20893;6737;117144;-75
2022/11/17 01:35:19;;;;;;;3.60;3.30;;;11.30;56.00;;;;;;20672;6743;338324;-75
2022/11/17 01:37:56;;;;;;;4.15;3.75;;;11.50;55.40;;;;;;20631;6725;277430;-74
2022/11/17 01:40:31;;;;;;;3.67;3.40;;;11.90;54.50;;;;;;20685;6730;309477;-74
2022/11/17 01:43:07;;;;;;;3.85;3.55;;;12.20;53.70;;;;;;20683;6730;276557;-79
2022/11/17 01:45:43;;;;;;;4.07;3.70;;;12.50;53.40;;;;;;20632;6744;306334;-75
2022/11/17 01:48:21;;;;;;;4.07;3.70;;;12.80;52.30;;;;;;20660;6729;280490;-74
2022/11/17 01:50:57;;;;;;;3.63;3.23;;;12.80;52.30;;;;;;20899;6735;116965;-74
2022/11/17 01:53:34;;;;;;;4.03;3.60;;;12.50;52.70;;;;;;20678;6744;340625;-77
2022/11/17 01:56:09;;;;;;;4.63;4.13;;;12.50;52.90;;;;;;20613;6760;277134;-74
2022/11/17 01:58:44;;;;;;;4.17;3.80;;;12.60;52.70;;;;;;20527;6760;304307;-74
2022/11/17 02:01:19;;;;;;;2.70;2.50;;;12.70;52.20;;;;;;20733;6785;117322;-74
2022/11/17 02:03:56;;;;;;;3.10;2.80;;;12.50;52.80;;;;;;20503;6783;307777;-74
2022/11/17 02:06:33;;;;;;;2.27;2.17;;;12.40;52.80;;;;;;20826;6755;123617;-74
2022/11/17 02:09:09;;;;;;;2.63;2.43;;;12.20;53.30;;;;;;20721;6755;120771;-75
2022/11/17 02:11:44;;;;;;;2.80;2.30;;;11.90;54.00;;;;;;20808;6755;119679;-75
2022/11/17 02:14:20;;;;;;;2.20;2.10;;;11.60;54.50;;;;;;20830;6758;117235;-75
2022/11/17 02:16:56;;;;;;;3.53;2.40;;;11.60;54.80;;;;;;20535;6780;278768;-74
2022/11/17 02:19:32;;;;;;;2.70;2.10;;;11.60;54.80;;;;;;20592;6786;120860;-76
2022/11/17 02:22:11;;;;;;;2.13;2.00;;;11.60;54.80;;;;;;20772;6771;123094;-74
2022/11/17 02:24:50;;;;;;;2.43;2.23;;;11.40;55.20;;;;;;20609;6752;308612;-75
2022/11/17 02:27:35;;;;;;;2.70;2.50;;;11.60;55.00;;;;;;20553;6771;308671;-75
2022/11/17 02:30:11;;;;;;;1.83;1.73;;;12.00;54.50;;;;;;20617;6766;117463;-75
2022/11/17 02:32:53;;;;;;;1.80;1.70;;;11.90;54.60;;;;;;20616;6755;277734;-74
2022/11/17 02:35:41;;;;;;;2.07;1.90;;;12.00;53.60;;;;;;20873;6740;122661;-74
2022/11/17 02:38:33;;;;;;;3.10;1.77;;;11.90;53.90;;;;;;20809;6765;116977;-75
2022/11/17 02:41:25;;;;;;;2.03;1.60;;;11.70;54.40;;;;;;20816;6760;117470;-75
2022/11/17 02:44:31;;;;;;;2.00;1.50;;;11.40;54.90;;;;;;20782;6766;117109;-76
2022/11/17 02:47:07;;;;;;;1.53;1.43;;;11.00;55.50;;;;;;20791;6766;117206;-75
2022/11/17 02:49:49;;;;;;;1.30;1.30;;;11.00;55.50;;;;;;20593;6751;129553;-75
2022/11/17 02:52:24;;;;;;;1.13;1.13;;;11.00;55.80;;;;;;20804;6745;117052;-75
2022/11/17 02:55:00;;;;;;;2.30;1.50;;;10.90;56.00;;;;;;20716;6775;117249;-75
2022/11/17 02:57:36;;;;;;;2.28;1.80;;;10.90;56.20;;;;;;20557;6775;281396;-76
2022/11/17 03:00:11;;;;;;;2.00;1.90;;;11.20;55.50;;;;;;20676;6745;118692;-75
2022/11/17 03:02:58;;;;;;;2.45;2.00;;;11.60;54.80;;;;;;20663;6739;339654;-75
2022/11/17 03:05:50;;;;;;;1.87;1.77;;;11.50;54.80;;;;;;20795;6758;117063;-75
2022/11/17 03:08:48;;;;;;;1.80;1.70;;;11.60;55.00;;;;;;20781;6753;119668;-74
2022/11/17 03:11:24;;;;;;;1.93;1.70;;;11.50;55.60;;;;;;20707;6725;308190;-74
2022/11/17 03:14:02;;;;;;;1.80;1.70;;;11.80;55.00;;;;;;20762;6769;117159;-75
2022/11/17 03:16:49;;;;;;;2.87;2.15;;;12.00;54.90;;;;;;20636;6748;305247;-74
2022/11/17 03:19:37;;;;;;;2.67;1.93;;;12.00;54.90;;;;;;20698;6766;120155;-74
2022/11/17 03:22:23;;;;;;;2.30;2.20;;;12.00;55.00;;;;;;20731;6784;117302;-75
2022/11/17 03:24:58;;;;;;;2.60;2.50;;;11.80;55.60;;;;;;20517;6784;307837;-75
2022/11/17 03:27:37;;;;;;;2.73;2.30;;;12.00;56.80;;;;;;20799;6754;117552;-76
2022/11/17 03:30:12;;;;;;;2.33;2.23;;;12.00;56.80;;;;;;20657;6751;116795;-75
2022/11/17 03:32:48;;;;;;;2.90;2.63;;;11.80;57.20;;;;;;20524;6781;341698;-74
2022/11/17 03:35:23;;;;;;;2.60;2.40;;;11.90;57.70;;;;;;20785;6766;117090;-75
2022/11/17 03:38:00;;;;;;;3.20;2.87;;;11.90;57.60;;;;;;20808;6751;124130;-75
2022/11/17 03:40:36;;;;;;;3.30;3.00;;;11.90;58.20;;;;;;20637;6751;289221;-75
2022/11/17 03:43:12;;;;;;;3.20;3.00;;;11.90;58.20;;;;;;20580;6763;307080;-74
2022/11/17 03:45:48;;;;;;;3.60;3.40;;;12.30;57.80;;;;;;20694;6725;276213;-74
2022/11/17 03:48:23;;;;;;;3.28;3.08;;;12.50;57.20;;;;;;20672;6725;298050;-74
2022/11/17 03:51:12;;;;;;;2.97;2.77;;;12.80;56.50;;;;;;20921;6725;117493;-74
2022/11/17 03:53:48;;;;;;;3.43;3.20;;;12.60;56.60;;;;;;20889;6725;122767;-75
2022/11/17 03:56:33;;;;;;;3.90;3.47;;;12.10;57.30;;;;;;20688;6725;304835;-75
2022/11/17 03:59:12;;;;;;;3.80;3.50;;;12.20;58.60;;;;;;20506;6760;285808;-74
2022/11/17 04:01:48;;;;;;;3.63;3.43;;;12.40;58.30;;;;;;20588;6760;278113;-74
2022/11/17 04:04:23;;;;;;;3.80;3.50;;;12.60;58.10;;;;;;20589;6766;281857;-75
2022/11/17 04:07:02;;;;;;;3.70;3.50;;;12.70;57.60;;;;;;20585;6766;321098;-75
2022/11/17 04:09:34;;;;;;;3.10;3.00;;;12.80;57.40;;;;;;20646;6766;117553;-75
2022/11/17 04:18:02;;;;;;;4.10;3.80;;;12.20;59.00;;;;;;20554;6766;277596;-77
2022/11/17 04:20:37;;;;;;;3.97;3.70;;;12.50;58.70;;;;;;20790;6766;117205;-77
2022/11/17 04:23:13;;;;;;;4.73;3.10;;;12.30;58.70;;;;;;20841;6751;117080;-78
2022/11/17 04:28:44;;;;;;;3.60;3.30;;;11.70;59.90;;;;;;20751;6760;117066;-77
2022/11/17 04:31:20;;;;;;;3.20;3.00;;;11.50;60.40;;;;;;20844;6760;117349;-75
2022/11/17 04:34:00;;;;;;;3.53;3.30;;;11.30;60.70;;;;;;20501;6784;312125;-76
2022/11/17 04:36:38;;;;;;;4.10;3.70;;;11.60;60.90;;;;;;20563;6769;336148;-77
2022/11/17 04:39:12;;;;;;;3.33;3.13;;;12.00;60.10;;;;;;20644;6767;117326;-77
2022/11/17 04:42:03;;;;;;;3.80;3.50;;;12.10;60.00;;;;;;20498;6791;337487;-77
2022/11/17 04:44:37;;;;;;;3.30;3.00;;;12.10;60.00;;;;;;20748;6768;117483;-76
2022/11/17 04:47:16;;;;;;;3.30;3.00;;;12.00;59.50;;;;;;20798;6760;117144;-76
2022/11/17 04:49:48;;;;;;;2.80;2.70;;;11.80;60.00;;;;;;20681;6738;117494;-76
2022/11/17 04:52:24;;;;;;;2.97;2.77;;;11.60;60.50;;;;;;20896;6738;119582;-76
2022/11/17 04:54:59;;;;;;;3.25;3.05;;;11.50;60.90;;;;;;20629;6752;341178;-76
2022/11/17 04:57:36;;;;;;;3.50;3.30;;;11.70;60.50;;;;;;20597;6752;305991;-77
2022/11/17 05:00:13;;;;;;;3.10;2.77;;;12.10;59.70;;;;;;20621;6752;117630;-76
2022/11/17 05:02:52;;;;;;;2.90;2.70;;;11.90;60.00;;;;;;20830;6764;117442;-76
2022/11/17 05:05:25;;;;;;;3.43;3.23;;;11.90;60.00;;;;;;20637;6762;306119;-76
2022/11/17 05:08:00;;;;;;;155.63;117.43;;;12.10;60.10;;;;;;20563;6778;292898;-76
2022/11/17 05:13:23;;;;;;;7.33;6.77;;;12.60;58.00;;;;;;20086;6824;121435;-76
2022/11/17 05:18:53;;;;;;;5.20;4.80;;;12.50;58.40;;;;;;20538;6753;342309;-76
2022/11/17 05:21:29;;;;;;;4.07;3.87;;;12.70;58.00;;;;;;20658;6738;306561;-76
2022/11/17 05:24:04;;;;;;;3.10;2.80;;;12.90;57.50;;;;;;20820;6752;117175;-76
2022/11/17 05:26:40;;;;;;;2.13;2.00;;;12.70;57.70;;;;;;20819;6756;120113;-76
2022/11/17 05:29:16;;;;;;;2.27;2.07;;;12.40;58.50;;;;;;20687;6756;117495;-75
2022/11/17 05:31:51;;;;;;;2.10;2.00;;;12.10;59.20;;;;;;20578;6756;335657;-76
2022/11/17 05:34:27;;;;;;;1.90;1.80;;;12.20;59.30;;;;;;20878;6738;117523;-75
2022/11/17 05:37:03;;;;;;;1.75;1.65;;;12.30;59.20;;;;;;20618;6753;307817;-75
2022/11/17 05:39:48;;;;;;;2.20;2.00;;;12.30;59.20;;;;;;20428;6768;316976;-76
2022/11/17 05:42:14;;;;;;;1.70;1.60;;;12.60;58.80;;;;;;20855;6753;117331;-75
2022/11/17 05:44:51;;;;;;;1.57;1.50;;;12.30;59.30;;;;;;20842;6753;117131;-76
2022/11/17 05:47:26;;;;;;;2.27;1.50;;;12.20;59.20;;;;;;20631;6753;306725;-73
2022/11/17 05:50:03;;;;;;;2.33;1.67;;;12.60;58.50;;;;;;20403;6759;281534;-75
2022/11/17 05:52:38;;;;;;;1.75;1.65;;;12.60;58.40;;;;;;20655;6759;277480;-75
2022/11/17 05:55:14;;;;;;;1.70;1.60;;;12.80;57.90;;;;;;20633;6759;310642;-75
2022/11/17 05:57:50;;;;;;;2.10;2.00;;;13.00;56.70;;;;;;20562;6776;277801;-75
2022/11/17 06:00:32;;;;;;;1.90;1.70;;;13.00;56.70;;;;;;20562;6846;117572;-75
2022/11/17 06:03:01;;;;;;;2.27;1.70;;;12.80;57.80;;;;;;20835;6753;117656;-76
2022/11/17 06:05:37;;;;;;;1.80;1.70;;;12.40;57.90;;;;;;20608;6752;288550;-77
2022/11/17 06:08:13;;;;;;;1.60;1.50;;;12.30;58.00;;;;;;20855;6737;117256;-77
2022/11/17 06:10:48;;;;;;;3.83;1.40;;;12.20;58.10;;;;;;20889;6738;120726;-77
2022/11/17 06:13:27;;;;;;;2.30;1.60;;;11.90;58.70;;;;;;20838;6752;116977;-76
2022/11/17 06:16:00;;;;;;;4.37;4.00;;;11.80;59.70;;;;;;20606;6752;311299;-74
2022/11/17 06:18:39;;;;;;;1.93;1.73;;;11.70;59.60;;;;;;20734;6767;117613;-75
2022/11/17 06:21:15;;;;;;;2.20;2.10;;;11.80;59.80;;;;;;20635;6764;336973;-75
2022/11/17 06:23:50;;;;;;;2.90;2.70;;;12.00;59.90;;;;;;20790;6764;117537;-75
2022/11/17 06:26:26;;;;;;;2.42;2.30;;;11.90;59.90;;;;;;20644;6764;277905;-76
2022/11/17 06:29:01;;;;;;;2.33;2.23;;;12.00;59.40;;;;;;20564;6749;283646;-77
2022/11/17 06:31:40;;;;;;;1.93;1.83;;;12.40;58.90;;;;;;20822;6756;118730;-78
2022/11/17 06:34:13;;;;;;;2.33;2.22;;;12.40;59.00;;;;;;20597;6765;305118;-74
2022/11/17 06:36:52;;;;;;;2.37;1.90;;;12.40;58.90;;;;;;20598;6767;280215;-75
2022/11/17 06:39:26;;;;;;;1.67;1.57;;;12.60;58.40;;;;;;20508;6766;309750;-77
2022/11/17 06:42:01;;;;;;;1.20;1.20;;;12.80;57.80;;;;;;20618;6753;306153;-78
2022/11/17 06:44:37;;;;;;;1.60;1.20;;;13.00;57.10;;;;;;20824;6768;117049;-74
2022/11/17 06:47:12;;;;;;;1.37;1.27;;;12.80;57.30;;;;;;20811;6773;117414;-76
2022/11/17 06:49:48;;;;;;;1.17;1.17;;;12.40;57.90;;;;;;20555;6753;307282;-74
2022/11/17 06:52:24;;;;;;;1.47;1.10;;;12.40;57.70;;;;;;20862;6756;117054;-74
2022/11/17 06:55:00;;;;;;;1.13;1.13;;;12.30;57.70;;;;;;20647;6753;310677;-76
2022/11/17 06:57:37;;;;;;;1.07;1.07;;;12.30;57.70;;;;;;20864;6748;116983;-74
2022/11/17 07:00:14;;;;;;;1.00;1.00;;;12.20;57.90;;;;;;20691;6753;122991;-74
2022/11/17 07:02:50;;;;;;;1.43;1.33;;;11.90;59.20;;;;;;20839;6753;117612;-74
2022/11/17 07:05:25;;;;;;;1.25;1.20;;;11.70;59.40;;;;;;20676;6738;336292;-76
2022/11/17 07:08:01;;;;;;;2.20;1.20;;;11.90;59.10;;;;;;20637;6738;280731;-73
2022/11/17 07:10:36;;;;;;;1.50;1.10;;;12.30;58.10;;;;;;20675;6738;310213;-73
2022/11/17 07:13:12;;;;;;;1.23;0.80;;;12.70;57.10;;;;;;20886;6738;117081;-73
2022/11/17 07:15:49;;;;;;;1.30;1.20;;;12.70;57.30;;;;;;20661;6738;279756;-74
2022/11/17 07:18:23;;;;;;;1.33;1.10;;;12.80;56.80;;;;;;20632;6737;283472;-75
2022/11/17 07:20:59;;;;;;;1.37;1.27;;;13.10;56.20;;;;;;20686;6738;276753;-74
2022/11/17 07:23:36;;;;;;;1.27;1.20;;;13.40;55.80;;;;;;20892;6738;117724;-74
2022/11/17 07:26:11;;;;;;;1.87;1.70;;;13.30;56.10;;;;;;20679;6738;305530;-74
2022/11/17 07:28:47;;;;;;;2.37;1.53;;;13.30;55.80;;;;;;20807;6738;117060;-74
2022/11/17 07:31:23;;;;;;;2.50;1.50;;;13.20;56.20;;;;;;20887;6738;117502;-74
2022/11/17 07:33:58;;;;;;;2.10;1.80;;;13.00;56.80;;;;;;20658;6738;340346;-74
2022/11/17 07:36:34;;;;;;;2.10;1.60;;;13.10;56.50;;;;;;20667;6738;306108;-74
2022/11/17 07:39:11;;;;;;;1.70;1.60;;;13.30;56.00;;;;;;20760;6738;117033;-74
2022/11/17 07:41:46;;;;;;;1.67;1.03;;;13.30;56.00;;;;;;20861;6738;117114;-74
2022/11/17 07:44:22;;;;;;;2.67;1.48;;;13.10;55.90;;;;;;20682;6738;319701;-74
2022/11/17 07:46:58;;;;;;;1.33;1.30;;;13.10;55.90;;;;;;20879;6738;117433;-74
2022/11/17 07:49:33;;;;;;;1.03;1.00;;;13.10;56.30;;;;;;20727;6738;119267;-74
2022/11/17 07:52:09;;;;;;;2.37;1.50;;;12.90;56.80;;;;;;20656;6738;309665;-74
2022/11/17 07:54:44;;;;;;;1.60;1.50;;;13.00;56.50;;;;;;20878;6738;119358;-74
2022/11/17 07:57:20;;;;;;;1.83;1.07;;;13.00;56.60;;;;;;20666;6738;335587;-74
2022/11/17 07:59:56;;;;;;;2.03;1.30;;;13.40;55.70;;;;;;20462;6738;313815;-74
2022/11/17 08:02:32;;;;;;;1.57;1.20;;;13.40;55.80;;;;;;20655;6738;302212;-73
2022/11/17 08:05:08;;;;;;;2.90;1.43;;;13.70;55.30;;;;;;20887;6738;117137;-74
2022/11/17 08:07:43;;;;;;;1.70;1.02;;;13.60;55.60;;;;;;20655;6738;335927;-75
2022/11/17 08:10:19;;;;;;;2.40;1.20;;;13.60;55.50;;;;;;20458;6809;279494;-75
2022/11/17 08:12:55;;;;;;;2.33;1.40;;;13.90;55.50;;;;;;20681;6738;307630;-76
2022/11/17 08:15:31;;;;;;;3.33;1.07;;;13.90;54.90;;;;;;20842;6753;116934;-74
2022/11/17 08:18:08;;;;;;;3.87;1.00;;;13.80;55.30;;;;;;20789;6753;117254;-75
2022/11/17 08:20:43;;;;;;;1.90;0.90;;;13.50;56.00;;;;;;20827;6756;117066;-74
2022/11/17 08:23:19;;;;;;;1.17;0.70;;;13.20;56.70;;;;;;20882;6753;117096;-75
2022/11/17 08:25:54;;;;;;;1.87;1.10;;;13.00;57.40;;;;;;20793;6756;117825;-76
2022/11/17 08:28:30;;;;;;;1.20;1.10;;;12.80;57.80;;;;;;20782;6752;118287;-75
2022/11/17 08:31:05;;;;;;;1.52;1.12;;;12.70;58.30;;;;;;20599;6752;310665;-75
2022/11/17 08:33:43;;;;;;;2.70;1.23;;;13.30;58.50;;;;;;20657;6738;278946;-75
2022/11/17 08:36:20;;;;;;;4.20;1.30;;;13.60;57.70;;;;;;20674;6738;277148;-75
2022/11/17 08:38:58;;;;;;;3.13;1.07;;;13.60;57.60;;;;;;20788;6738;117084;-75
2022/11/17 08:41:31;;;;;;;2.78;1.23;;;13.50;57.60;;;;;;20677;6738;306112;-75
2022/11/17 08:44:07;;;;;;;2.63;1.23;;;13.50;57.50;;;;;;20662;6737;276488;-75
2022/11/17 08:46:43;;;;;;;3.10;1.40;;;13.80;57.50;;;;;;20675;6738;310118;-75
2022/11/17 08:49:18;;;;;;;1.77;1.00;;;14.00;57.20;;;;;;20739;6738;117003;-75
2022/11/17 08:51:54;;;;;;;2.03;1.12;;;13.80;57.40;;;;;;20662;6738;308509;-76
2022/11/17 08:54:30;;;;;;;2.73;1.03;;;13.90;57.30;;;;;;20680;6738;281503;-75
2022/11/17 08:57:05;;;;;;;1.00;0.80;;;14.10;56.50;;;;;;20671;6738;306582;-75
2022/11/17 08:59:41;;;;;;;1.27;0.90;;;14.30;55.60;;;;;;20486;6738;322267;-75
2022/11/17 09:02:16;;;;;;;1.03;0.83;;;14.40;54.70;;;;;;20671;6738;314804;-75
2022/11/17 09:04:52;;;;;;;1.20;0.73;;;14.50;54.10;;;;;;20888;6738;117002;-75
2022/11/17 09:07:27;;;;;;;0.82;0.62;;;14.30;54.70;;;;;;20670;6738;335365;-75
2022/11/17 09:21:02;;;;;;;0.57;0.53;;;14.90;53.40;;;;;;21172;6532;90714;-76
2022/11/17 09:23:27;;;;;;;0.70;0.70;;;14.70;54.00;;;;;;20567;6823;282112;-76
2022/11/17 09:25:54;;;;;;;1.30;0.90;;;14.40;55.20;;;;;;20765;6823;117629;-76
2022/11/17 09:28:19;;;;;;;1.53;0.60;;;14.40;54.30;;;;;;20753;6823;120007;-76
2022/11/17 09:30:45;;;;;;;1.43;0.80;;;14.20;55.00;;;;;;20411;6874;325635;-76
2022/11/17 09:33:10;;;;;;;1.40;0.70;;;14.20;54.20;;;;;;20401;6879;309826;-76
2022/11/17 09:35:36;;;;;;;1.13;0.60;;;14.40;52.80;;;;;;20644;6869;119968;-76
2022/11/17 09:38:03;;;;;;;1.23;0.50;;;14.30;53.30;;;;;;20648;6869;117839;-76
2022/11/17 09:40:29;;;;;;;2.03;0.73;;;14.10;52.30;;;;;;20484;6854;307871;-76
2022/11/17 09:42:55;;;;;;;0.97;0.40;;;14.10;52.30;;;;;;20698;6854;123857;-74
2022/11/17 09:45:24;;;;;;;1.10;0.90;;;14.10;52.90;;;;;;20435;6869;311998;-73
2022/11/17 09:47:59;;;;;;;1.07;0.57;;;14.20;51.50;;;;;;20614;6869;120512;-75
2022/11/17 09:50:33;;;;;;;0.90;0.50;;;14.10;52.00;;;;;;20628;6865;117479;-75
2022/11/17 09:53:21;;;;;;;1.60;0.60;;;13.80;52.60;;;;;;20439;6855;312290;-75
2022/11/17 09:55:47;;;;;;;1.07;0.40;;;13.90;52.20;;;;;;20640;6854;142055;-75
2022/11/17 09:58:26;;;;;;;2.57;0.80;;;13.90;52.20;;;;;;20683;6855;118649;-75
2022/11/17 10:00:53;;;;;;;0.80;0.55;;;13.70;52.60;;;;;;20474;6855;337306;-75
2022/11/17 10:03:17;;;;;;;1.00;0.50;;;13.90;51.90;;;;;;20471;6855;319513;-75
2022/11/17 10:05:43;;;;;;;0.63;0.40;;;14.20;51.00;;;;;;20632;6855;119123;-76
2022/11/17 10:08:08;;;;;;;0.43;0.37;;;14.20;51.50;;;;;;20698;6855;117700;-75
2022/11/17 10:10:34;;;;;;;0.90;0.50;;;14.10;52.00;;;;;;20679;6855;118282;-75
2022/11/17 10:13:01;;;;;;;0.93;0.60;;;14.00;52.40;;;;;;20401;6855;278030;-75
2022/11/17 10:15:41;;;;;;;1.20;0.60;;;14.10;50.90;;;;;;20465;6855;307859;-76
2022/11/17 10:18:07;;;;;;;1.07;0.53;;;14.90;50.50;;;;;;20466;6855;307807;-77
2022/11/17 10:20:33;;;;;;;1.67;0.80;;;14.80;50.40;;;;;;20678;6855;117676;-77
2022/11/17 10:22:58;;;;;;;1.67;0.67;;;15.00;50.90;;;;;;20489;6855;307524;-77
2022/11/17 10:25:37;;;;;;;3.63;0.83;;;15.10;49.40;;;;;;20674;6855;117622;-77
2022/11/17 10:28:03;;;;;;;0.97;0.47;;;15.20;49.90;;;;;;20684;6855;118246;-77
2022/11/17 10:30:28;;;;;;;1.10;0.60;;;15.00;50.40;;;;;;20479;6853;286409;-76
2022/11/17 10:32:57;;;;;;;1.27;0.90;;;15.10;48.90;;;;;;20697;6854;117390;-75
2022/11/17 10:35:23;;;;;;;1.83;0.80;;;15.10;49.70;;;;;;20683;6854;117473;-75
2022/11/17 10:37:58;;;;;;;1.02;0.45;;;14.90;50.30;;;;;;20634;6854;117696;-75
2022/11/17 10:40:33;;;;;;;0.80;0.80;;;14.80;50.80;;;;;;20661;6854;117855;-74
2022/11/17 10:43:12;;;;;;;1.67;0.70;;;14.70;51.70;;;;;;20638;6854;117388;-75
2022/11/17 10:45:45;;;;;;;1.67;0.80;;;14.70;51.70;;;;;;20458;6854;338276;-76
2022/11/17 10:48:26;;;;;;;1.10;0.63;;;15.10;50.20;;;;;;20634;6869;121224;-75
2022/11/17 10:50:52;;;;;;;2.10;1.05;;;15.20;50.30;;;;;;20416;6870;308409;-75
2022/11/17 10:53:20;;;;;;;3.43;0.70;;;15.50;49.30;;;;;;20629;6870;117879;-75
2022/11/17 10:55:46;;;;;;;2.27;0.90;;;15.50;49.40;;;;;;20306;6863;309380;-76
2022/11/17 10:58:24;;;;;;;2.43;1.10;;;15.70;48.20;;;;;;20468;6850;308108;-75
2022/11/17 11:00:57;;;;;;;2.05;0.82;;;16.20;47.40;;;;;;20505;6848;313381;-76
2022/11/17 11:03:23;;;;;;;1.27;0.90;;;16.10;47.30;;;;;;20661;6863;117818;-78
2022/11/17 11:06:05;;;;;;;1.30;0.80;;;16.00;47.90;;;;;;20570;6863;118173;-77
2022/11/17 11:08:34;;;;;;;1.67;0.97;;;15.70;48.60;;;;;;20593;6863;117468;-77
2022/11/17 11:10:59;;;;;;;2.03;0.70;;;15.50;49.10;;;;;;20691;6855;118542;-78
2022/11/17 11:13:25;;;;;;;3.83;0.87;;;15.30;49.60;;;;;;20684;6855;117926;-77
2022/11/17 11:15:52;;;;;;;2.55;1.08;;;15.30;49.10;;;;;;20433;6855;309254;-77
2022/11/17 11:18:16;;;;;;;1.23;0.93;;;15.30;49.10;;;;;;20681;6855;118107;-78
2022/11/17 11:21:04;;;;;;;2.30;1.20;;;15.30;49.50;;;;;;20474;6855;279476;-77
2022/11/17 11:23:29;;;;;;;2.07;1.10;;;15.50;49.10;;;;;;20679;6855;117456;-77
2022/11/17 11:25:54;;;;;;;2.43;1.00;;;15.50;49.80;;;;;;20654;6855;117950;-78
2022/11/17 11:28:37;;;;;;;4.60;1.20;;;15.40;50.20;;;;;;20669;6855;117990;-78
2022/11/17 11:31:32;;;;;;;5.47;1.40;;;15.30;50.60;;;;;;20465;6855;338201;-78
2022/11/17 11:34:20;;;;;;;1.80;0.90;;;15.50;49.40;;;;;;20674;6855;118415;-78
2022/11/17 11:36:49;;;;;;;4.37;1.10;;;15.30;50.30;;;;;;20692;6855;117535;-80
2022/11/17 11:39:15;;;;;;;3.00;1.40;;;15.30;50.20;;;;;;20679;6855;117391;-77
2022/11/17 11:42:14;;;;;;;1.77;0.90;;;15.20;50.60;;;;;;20644;6853;150956;-78
2022/11/17 11:44:56;;;;;;;2.90;1.50;;;15.20;50.90;;;;;;20472;6854;278925;-77
2022/11/17 11:47:38;;;;;;;4.15;1.33;;;15.40;49.10;;;;;;19694;6849;320080;-77
2022/11/17 11:50:04;;;;;;;3.42;1.45;;;16.20;48.00;;;;;;20480;6849;298347;-77
2022/11/17 11:52:31;;;;;;;3.72;1.73;;;16.40;48.50;;;;;;20462;6849;317831;-76
2022/11/17 11:55:00;;;;;;;4.63;1.60;;;16.40;48.50;;;;;;20695;6849;117358;-78
2022/11/17 11:57:29;;;;;;;4.25;1.73;;;16.50;49.00;;;;;;20490;6849;278788;-77
2022/11/17 11:59:58;;;;;;;5.53;1.70;;;16.60;47.70;;;;;;20673;6849;117496;-74
2022/11/17 12:02:33;;;;;;;4.50;1.73;;;16.40;47.80;;;;;;20495;6849;338084;-75
2022/11/17 12:05:12;;;;;;;5.23;1.83;;;16.50;46.80;;;;;;20689;6849;118076;-75
2022/11/17 12:07:54;;;;;;;3.53;1.60;;;16.40;47.40;;;;;;20673;6849;118566;-74
2022/11/17 12:10:49;;;;;;;6.90;1.80;;;16.20;48.00;;;;;;20697;6849;118205;-75
2022/11/17 12:13:14;;;;;;;16.40;1.70;;;16.10;47.80;;;;;;20720;6849;118415;-76
2022/11/17 12:15:40;;;;;;;4.90;1.92;;;15.90;47.80;;;;;;20486;6849;311539;-78
2022/11/17 12:18:05;;;;;;;5.33;1.47;;;15.90;45.30;;;;;;20720;6849;117653;-78
2022/11/17 12:20:37;;;;;;;5.97;1.50;;;15.90;45.80;;;;;;20680;6849;116477;-80
2022/11/17 12:23:12;;;;;;;4.18;1.90;;;15.80;46.30;;;;;;20471;6849;312607;-81
2022/11/17 12:25:38;;;;;;;4.40;1.85;;;15.90;44.90;;;;;;20478;6849;278463;-80
2022/11/17 12:28:23;;;;;;;5.85;2.20;;;16.10;45.20;;;;;;20469;6849;337061;-81
2022/11/17 12:30:49;;;;;;;4.40;1.90;;;16.30;45.10;;;;;;19930;6849;120261;-76
2022/11/17 12:33:14;;;;;;;5.03;1.80;;;16.20;46.00;;;;;;20702;6849;117869;-76
2022/11/17 12:35:40;;;;;;;6.50;2.23;;;16.00;46.70;;;;;;20483;6849;280456;-77
2022/11/17 12:38:15;;;;;;;4.90;1.87;;;16.10;45.20;;;;;;20719;6849;124457;-77
2022/11/17 12:40:42;;;;;;;5.03;2.35;;;16.10;45.80;;;;;;20499;6849;308155;-77
2022/11/17 12:43:23;;;;;;;7.03;1.90;;;16.30;44.80;;;;;;20705;6849;117252;-77
2022/11/17 12:45:52;;;;;;;5.30;1.87;;;16.20;45.20;;;;;;20684;6849;120276;-76
2022/11/17 12:48:27;;;;;;;4.03;1.97;;;15.90;45.70;;;;;;20698;6849;117468;-76
2022/11/17 12:51:13;;;;;;;5.50;2.30;;;15.70;46.40;;;;;;20471;6849;312198;-76
2022/11/17 12:53:38;;;;;;;8.20;1.63;;;15.80;45.30;;;;;;20687;6847;147179;-74
2022/11/17 12:56:14;;;;;;;4.45;1.67;;;15.70;46.50;;;;;;20688;6848;118195;-74
2022/11/17 12:58:44;;;;;;;4.60;1.70;;;15.50;47.00;;;;;;20661;6849;117599;-74
2022/11/17 13:01:22;;;;;;;5.00;2.00;;;15.40;46.90;;;;;;20495;6849;337849;-74
2022/11/17 13:03:48;;;;;;;5.60;2.20;;;15.60;45.60;;;;;;20443;6849;278952;-75
2022/11/17 13:06:14;;;;;;;6.33;2.47;;;15.90;45.20;;;;;;20488;6849;278498;-74
2022/11/17 13:08:40;;;;;;;7.12;2.67;;;16.30;44.10;;;;;;20490;6849;308066;-74
2022/11/17 13:11:06;;;;;;;4.97;2.20;;;16.30;44.10;;;;;;20661;6849;116315;-75
2022/11/17 13:13:31;;;;;;;8.83;2.40;;;16.10;44.90;;;;;;20689;6849;118475;-74
2022/11/17 13:15:58;;;;;;;3.47;1.70;;;15.80;45.80;;;;;;20702;6849;118120;-75
2022/11/17 13:18:40;;;;;;;7.05;2.30;;;15.60;46.50;;;;;;20492;6849;299688;-73
2022/11/17 13:21:29;;;;;;;6.43;2.40;;;16.10;45.00;;;;;;20506;6849;308153;-74
2022/11/17 13:23:55;;;;;;;3.90;1.83;;;16.10;45.00;;;;;;20700;6849;124481;-75
2022/11/17 13:26:20;;;;;;;3.83;2.20;;;16.10;45.90;;;;;;20720;6849;117435;-74
2022/11/17 13:28:46;;;;;;;4.33;1.90;;;15.80;46.40;;;;;;20705;6849;117367;-74
2022/11/17 13:31:11;;;;;;;5.83;2.30;;;15.60;46.90;;;;;;20486;6849;308568;-75
2022/11/17 13:33:37;;;;;;;6.45;2.20;;;15.80;45.50;;;;;;20463;6849;307603;-76
2022/11/17 13:36:13;;;;;;;6.70;2.43;;;16.10;43.90;;;;;;20497;6849;283364;-74
2022/11/17 13:38:38;;;;;;;6.75;2.30;;;16.30;42.00;;;;;;20487;6849;278930;-74
2022/11/17 13:41:04;;;;;;;4.17;1.83;;;16.50;41.80;;;;;;20685;6849;117572;-74
2022/11/17 13:43:29;;;;;;;6.47;2.50;;;16.40;42.90;;;;;;20493;6849;331160;-74
2022/11/17 13:45:55;;;;;;;7.03;2.00;;;16.40;42.10;;;;;;20673;6849;117397;-74
2022/11/17 13:48:37;;;;;;;5.00;2.40;;;16.20;43.10;;;;;;20504;6849;307760;-73
2022/11/17 13:51:19;;;;;;;6.10;2.17;;;16.20;42.50;;;;;;20710;6849;117810;-77